Time;durP1;ratioP1;P1;durP2;ratioP2;P2;SDS_P1;SDS_P2;PMS_P1;PMS_P2;Temp;Humidity;BMP_temperature;BMP_pressure;BME280_temperature;BME280_humidity;BME280_pressure;Samples;Min_cycle;Max_cycle;Signal;HPM_P1;HPM_P2
2022/09/29 00:00:53;;;;;;;6.45;3.35;;;;;;;;;;4990367;28;20051;-67
2022/09/29 00:03:19;;;;;;;7.13;3.75;;;;;;;;;;4987031;28;20466;-68
2022/09/29 00:05:53;;;;;;;7.65;3.53;;;;;;;;;;4989652;28;20297;-68
2022/09/29 00:08:20;;;;;;;8.25;3.72;;;;;;;;;;4988416;28;20510;-67
2022/09/29 00:10:46;;;;;;;6.55;2.92;;;;;;;;;;4986952;28;20445;-68
2022/09/29 00:13:12;;;;;;;7.43;3.75;;;;;;;;;;4988516;28;20417;-68
2022/09/29 00:15:38;;;;;;;7.38;3.45;;;;;;;;;;4986954;28;20447;-67
2022/09/29 00:18:03;;;;;;;7.00;3.20;;;;;;;;;;4987406;28;20457;-68
2022/09/29 00:20:29;;;;;;;6.43;3.25;;;;;;;;;;4986440;28;20419;-67
2022/09/29 00:22:54;;;;;;;8.30;3.50;;;;;;;;;;4987995;28;20095;-67
2022/09/29 00:25:20;;;;;;;7.70;3.30;;;;;;;;;;4988444;28;20052;-68
2022/09/29 00:27:45;;;;;;;7.82;3.90;;;;;;;;;;4987922;28;20467;-67
2022/09/29 00:30:11;;;;;;;4.75;3.03;;;;;;;;;;4988545;28;20351;-68
2022/09/29 00:32:36;;;;;;;8.07;3.42;;;;;;;;;;4986855;28;20305;-67
2022/09/29 00:35:02;;;;;;;8.43;3.25;;;;;;;;;;4987958;28;20394;-68
2022/09/29 00:37:27;;;;;;;11.45;3.67;;;;;;;;;;4986604;28;20410;-68
2022/09/29 00:39:53;;;;;;;11.13;3.63;;;;;;;;;;4987812;28;20410;-67
2022/09/29 00:42:19;;;;;;;7.90;3.95;;;;;;;;;;4988847;28;20452;-68
2022/09/29 00:44:54;;;;;;;5.97;2.92;;;;;;;;;;4987894;28;20336;-68
2022/09/29 00:47:20;;;;;;;8.90;3.47;;;;;;;;;;4986322;28;20348;-68
2022/09/29 00:49:54;;;;;;;7.32;4.10;;;;;;;;;;4990138;28;20080;-68
2022/09/29 00:52:27;;;;;;;7.65;3.90;;;;;;;;;;4988015;28;20506;-67
2022/09/29 00:54:57;;;;;;;8.00;3.80;;;;;;;;;;4986121;28;20426;-69
2022/09/29 00:57:26;;;;;;;6.45;3.45;;;;;;;;;;4987148;28;20367;-68
2022/09/29 01:00:00;;;;;;;7.10;2.85;;;;;;;;;;4986316;28;20314;-68
2022/09/29 01:02:27;;;;;;;6.68;2.90;;;;;;;;;;4989406;28;20459;-68
2022/09/29 01:04:52;;;;;;;6.60;3.25;;;;;;;;;;5003758;28;20400;-68
2022/09/29 01:07:20;;;;;;;7.95;3.50;;;;;;;;;;5006144;28;20446;-67
2022/09/29 01:09:47;;;;;;;5.82;3.05;;;;;;;;;;5006964;28;20086;-68
2022/09/29 01:12:14;;;;;;;6.53;3.60;;;;;;;;;;5005716;28;20420;-68
2022/09/29 01:14:39;;;;;;;5.65;2.50;;;;;;;;;;5007529;28;20521;-67
2022/09/29 01:17:05;;;;;;;6.88;2.95;;;;;;;;;;5006378;28;20510;-68
2022/09/29 01:19:42;;;;;;;12.02;3.75;;;;;;;;;;5007121;28;20043;-68
2022/09/29 01:22:20;;;;;;;8.07;3.72;;;;;;;;;;5008784;28;20379;-68
2022/09/29 01:25:27;;;;;;;6.93;3.33;;;;;;;;;;5005882;28;20047;-67
2022/09/29 01:28:39;;;;;;;5.78;3.00;;;;;;;;;;4988989;28;20094;-68
2022/09/29 01:31:18;;;;;;;6.30;2.45;;;;;;;;;;4962683;28;20044;-68
2022/09/29 01:34:08;;;;;;;4.38;2.45;;;;;;;;;;5008495;28;20457;-68
2022/09/29 01:36:53;;;;;;;5.88;3.05;;;;;;;;;;5013296;28;20320;-68
2022/09/29 01:39:33;;;;;;;7.32;3.00;;;;;;;;;;5009426;28;20398;-68
2022/09/29 01:42:06;;;;;;;6.05;2.85;;;;;;;;;;5009401;28;20500;-68
2022/09/29 01:44:45;;;;;;;7.53;3.30;;;;;;;;;;5009555;28;20497;-68
2022/09/29 01:47:18;;;;;;;5.15;2.80;;;;;;;;;;5009905;28;20482;-68
2022/09/29 01:49:50;;;;;;;4.38;2.90;;;;;;;;;;5011839;28;20434;-67
2022/09/29 01:52:18;;;;;;;5.35;3.13;;;;;;;;;;5009201;28;20439;-68
2022/09/29 01:54:54;;;;;;;5.10;2.75;;;;;;;;;;5009462;28;20028;-68
2022/09/29 01:57:29;;;;;;;7.13;2.72;;;;;;;;;;5009933;28;20356;-68
2022/09/29 02:00:04;;;;;;;5.90;2.75;;;;;;;;;;5009094;28;20108;-67
2022/09/29 02:02:55;;;;;;;6.43;3.58;;;;;;;;;;5008954;28;20321;-68
2022/09/29 02:05:31;;;;;;;5.38;2.90;;;;;;;;;;5009803;28;20352;-68
2022/09/29 02:08:01;;;;;;;6.60;2.95;;;;;;;;;;5009137;28;20458;-68
2022/09/29 02:10:35;;;;;;;7.35;3.10;;;;;;;;;;5008617;28;20367;-68
2022/09/29 02:13:02;;;;;;;6.88;2.95;;;;;;;;;;5010456;28;20324;-68
2022/09/29 02:15:30;;;;;;;5.45;2.72;;;;;;;;;;5008915;28;20338;-67
2022/09/29 02:18:00;;;;;;;5.95;3.13;;;;;;;;;;5008924;28;20351;-68
2022/09/29 02:20:25;;;;;;;;;;;;;;;;;;4992479;28;20407;-69
2022/09/29 02:22:51;;;;;;;5.38;2.72;;;;;;;;;;5010770;28;20281;-68
2022/09/29 02:25:18;;;;;;;8.15;2.85;;;;;;;;;;5010219;28;20434;-68
2022/09/29 02:27:44;;;;;;;5.10;2.80;;;;;;;;;;5008606;28;20447;-68
2022/09/29 02:30:10;;;;;;;4.65;2.65;;;;;;;;;;5008517;28;20435;-68
2022/09/29 02:32:35;;;;;;;8.95;3.55;;;;;;;;;;5008524;28;20103;-68
2022/09/29 02:35:04;;;;;;;5.75;2.72;;;;;;;;;;5008538;28;20447;-67
2022/09/29 02:38:04;;;;;;;5.05;2.75;;;;;;;;;;5008359;28;20463;-68
2022/09/29 02:40:47;;;;;;;6.28;2.50;;;;;;;;;;5010113;28;20473;-68
2022/09/29 02:43:16;;;;;;;5.60;2.85;;;;;;;;;;5008003;28;20340;-68
2022/09/29 02:46:32;;;;;;;6.20;3.00;;;;;;;;;;5008282;28;20493;-68
2022/09/29 02:49:07;;;;;;;5.38;3.40;;;;;;;;;;4955033;28;20332;-68
2022/09/29 02:51:38;;;;;;;4.15;2.40;;;;;;;;;;5008146;28;20677;-68
2022/09/29 02:54:18;;;;;;;5.10;2.95;;;;;;;;;;5008881;28;20399;-68
2022/09/29 02:57:00;;;;;;;6.70;2.90;;;;;;;;;;5008430;28;20528;-68
2022/09/29 02:59:31;;;;;;;6.03;3.13;;;;;;;;;;5008151;28;20407;-68
2022/09/29 03:01:57;;;;;;;5.95;3.45;;;;;;;;;;5008274;28;20417;-68
2022/09/29 03:04:25;;;;;;;6.55;3.38;;;;;;;;;;5009864;28;20072;-68
2022/09/29 03:06:51;;;;;;;4.82;2.78;;;;;;;;;;5008097;28;20343;-68
2022/09/29 03:09:17;;;;;;;8.85;2.72;;;;;;;;;;5008567;28;20431;-68
2022/09/29 03:11:42;;;;;;;9.48;3.65;;;;;;;;;;5007215;28;20502;-67
2022/09/29 03:14:08;;;;;;;7.10;3.38;;;;;;;;;;5009366;28;20525;-68
2022/09/29 03:16:34;;;;;;;6.13;3.50;;;;;;;;;;5008636;28;20120;-68
2022/09/29 03:18:59;;;;;;;5.13;3.20;;;;;;;;;;5009098;28;20390;-69
2022/09/29 03:21:25;;;;;;;5.38;2.85;;;;;;;;;;4991709;28;20366;-68
2022/09/29 03:23:50;;;;;;;9.52;3.03;;;;;;;;;;5007983;28;20502;-68
2022/09/29 03:26:15;;;;;;;4.95;2.90;;;;;;;;;;5009192;28;20047;-68
2022/09/29 03:28:41;;;;;;;6.00;3.00;;;;;;;;;;5009081;28;20361;-68
2022/09/29 03:31:08;;;;;;;5.53;3.33;;;;;;;;;;5008919;28;20616;-68
2022/09/29 03:33:37;;;;;;;5.80;2.67;;;;;;;;;;5007883;28;20338;-68
2022/09/29 03:36:04;;;;;;;7.90;3.28;;;;;;;;;;5008348;28;20499;-68
2022/09/29 03:38:30;;;;;;;6.95;3.45;;;;;;;;;;5010973;28;20051;-68
2022/09/29 03:40:55;;;;;;;8.93;3.40;;;;;;;;;;5009821;28;20029;-68
2022/09/29 03:43:21;;;;;;;4.70;2.60;;;;;;;;;;5009389;28;20432;-68
2022/09/29 03:45:52;;;;;;;6.90;2.72;;;;;;;;;;5009105;28;20447;-68
2022/09/29 03:48:18;;;;;;;4.63;2.58;;;;;;;;;;5008399;28;20427;-68
2022/09/29 03:50:46;;;;;;;4.15;2.70;;;;;;;;;;5006953;28;20446;-68
2022/09/29 03:53:12;;;;;;;4.80;2.78;;;;;;;;;;5008595;28;20350;-68
2022/09/29 03:55:37;;;;;;;4.25;2.65;;;;;;;;;;5006129;28;20443;-68
2022/09/29 03:58:03;;;;;;;4.45;2.60;;;;;;;;;;5008320;28;20451;-68
2022/09/29 04:00:28;;;;;;;5.10;3.03;;;;;;;;;;5008579;28;20355;-68
2022/09/29 04:02:53;;;;;;;10.55;2.90;;;;;;;;;;5008241;28;20386;-68
2022/09/29 04:05:19;;;;;;;7.40;3.13;;;;;;;;;;5010922;28;20123;-68
2022/09/29 04:07:44;;;;;;;5.78;2.75;;;;;;;;;;5006890;28;20127;-68
2022/09/29 04:10:09;;;;;;;6.82;2.83;;;;;;;;;;5006323;28;20072;-68
2022/09/29 04:12:35;;;;;;;6.55;3.25;;;;;;;;;;5007601;28;20536;-68
2022/09/29 04:15:00;;;;;;;3.72;2.53;;;;;;;;;;5006929;28;20423;-68
2022/09/29 04:17:26;;;;;;;3.55;2.33;;;;;;;;;;5008006;28;20332;-68
2022/09/29 04:19:51;;;;;;;4.22;2.83;;;;;;;;;;5006611;28;20493;-68
2022/09/29 04:22:17;;;;;;;5.30;2.47;;;;;;;;;;5008920;28;20428;-68
2022/09/29 04:24:43;;;;;;;4.50;2.67;;;;;;;;;;5008991;28;20451;-68
2022/09/29 04:27:08;;;;;;;8.88;3.25;;;;;;;;;;5007994;28;20485;-68
2022/09/29 04:29:34;;;;;;;6.35;3.10;;;;;;;;;;5008444;28;20467;-69
2022/09/29 04:31:59;;;;;;;6.82;3.45;;;;;;;;;;5007978;28;20410;-68
2022/09/29 04:34:25;;;;;;;5.72;3.10;;;;;;;;;;5008056;28;20352;-68
2022/09/29 04:36:50;;;;;;;5.85;3.28;;;;;;;;;;5008470;28;20043;-68
2022/09/29 04:39:15;;;;;;;6.20;3.78;;;;;;;;;;5006801;28;20060;-68
2022/09/29 04:41:43;;;;;;;4.88;3.03;;;;;;;;;;5006618;28;20344;-68
2022/09/29 04:44:09;;;;;;;8.35;2.78;;;;;;;;;;5008094;28;20021;-68
2022/09/29 04:46:34;;;;;;;7.35;2.45;;;;;;;;;;5008203;28;20134;-68
2022/09/29 04:48:59;;;;;;;5.15;3.17;;;;;;;;;;5006330;28;20044;-68
2022/09/29 04:51:26;;;;;;;4.03;2.47;;;;;;;;;;5007822;28;20462;-68
2022/09/29 04:53:52;;;;;;;5.00;2.53;;;;;;;;;;5009646;28;20032;-68
2022/09/29 04:56:17;;;;;;;6.72;2.90;;;;;;;;;;5006449;28;20418;-68
2022/09/29 04:58:42;;;;;;;4.22;2.35;;;;;;;;;;5008974;28;20397;-68
2022/09/29 05:01:12;;;;;;;4.78;2.65;;;;;;;;;;5008431;28;20334;-68
2022/09/29 05:03:38;;;;;;;5.28;3.10;;;;;;;;;;5007620;28;20058;-68
2022/09/29 05:06:04;;;;;;;5.18;2.90;;;;;;;;;;5006301;28;20124;-68
2022/09/29 05:08:29;;;;;;;8.18;2.78;;;;;;;;;;5006644;28;20500;-68
2022/09/29 05:10:54;;;;;;;5.53;2.92;;;;;;;;;;5007329;28;20459;-68
2022/09/29 05:13:20;;;;;;;9.60;2.90;;;;;;;;;;5007612;28;20521;-68
2022/09/29 05:15:45;;;;;;;6.80;3.17;;;;;;;;;;5007616;28;20359;-68
2022/09/29 05:18:10;;;;;;;4.32;2.70;;;;;;;;;;5008635;28;20128;-68
2022/09/29 05:20:36;;;;;;;5.25;3.10;;;;;;;;;;5007736;28;20458;-68
2022/09/29 05:23:01;;;;;;;6.65;3.33;;;;;;;;;;5007502;28;20454;-68
2022/09/29 05:25:27;;;;;;;5.40;2.97;;;;;;;;;;5008616;28;20468;-68
2022/09/29 05:27:52;;;;;;;4.85;3.10;;;;;;;;;;5006081;28;20443;-68
2022/09/29 05:30:18;;;;;;;6.28;3.40;;;;;;;;;;5005937;28;20321;-68
2022/09/29 05:32:43;;;;;;;6.70;3.55;;;;;;;;;;5007567;28;20343;-68
2022/09/29 05:35:09;;;;;;;11.65;3.78;;;;;;;;;;5007869;28;20398;-69
2022/09/29 05:37:34;;;;;;;5.05;2.97;;;;;;;;;;5006067;28;20036;-68
2022/09/29 05:39:59;;;;;;;5.97;3.60;;;;;;;;;;5006152;28;20331;-68
2022/09/29 05:42:26;;;;;;;6.93;3.55;;;;;;;;;;5006761;28;20062;-68
2022/09/29 05:44:52;;;;;;;7.60;3.17;;;;;;;;;;5007421;28;20455;-68
2022/09/29 05:47:17;;;;;;;13.90;3.80;;;;;;;;;;5006063;28;20378;-68
2022/09/29 05:49:43;;;;;;;5.47;3.28;;;;;;;;;;5007142;28;20439;-68
2022/09/29 05:52:08;;;;;;;11.63;3.70;;;;;;;;;;5007468;28;20028;-68
2022/09/29 05:54:33;;;;;;;8.18;4.10;;;;;;;;;;5007387;28;20510;-68
2022/09/29 05:56:58;;;;;;;9.80;4.15;;;;;;;;;;5008225;28;20464;-68
2022/09/29 05:59:24;;;;;;;7.35;4.38;;;;;;;;;;5007221;28;20432;-68
2022/09/29 06:01:49;;;;;;;7.80;3.63;;;;;;;;;;5007754;28;20446;-68
2022/09/29 06:04:16;;;;;;;8.23;3.72;;;;;;;;;;5007198;28;20452;-68
2022/09/29 06:06:41;;;;;;;7.72;3.97;;;;;;;;;;5005545;28;20439;-68
2022/09/29 06:09:08;;;;;;;6.60;3.65;;;;;;;;;;5006599;28;20386;-68
2022/09/29 06:11:33;;;;;;;6.72;3.85;;;;;;;;;;5006740;28;20528;-68
2022/09/29 06:14:00;;;;;;;5.72;3.63;;;;;;;;;;5005463;28;20451;-68
2022/09/29 06:16:27;;;;;;;24.42;4.22;;;;;;;;;;5005764;28;20435;-68
2022/09/29 06:18:53;;;;;;;6.88;3.35;;;;;;;;;;5006983;28;20320;-68
2022/09/29 06:21:22;;;;;;;8.02;4.18;;;;;;;;;;5010824;28;20042;-68
2022/09/29 06:23:47;;;;;;;5.38;2.83;;;;;;;;;;5009152;28;20418;-68
2022/09/29 06:26:15;;;;;;;5.13;3.08;;;;;;;;;;5012124;28;20036;-68
2022/09/29 06:28:40;;;;;;;10.85;3.88;;;;;;;;;;5010703;28;20514;-70
2022/09/29 06:31:10;;;;;;;6.20;3.58;;;;;;;;;;5009170;28;20316;-68
2022/09/29 06:33:36;;;;;;;6.95;3.40;;;;;;;;;;5009402;28;20047;-68
2022/09/29 06:38:56;;;;;;;6.15;3.17;;;;;;;;;;5009042;28;20052;-67
2022/09/29 06:41:22;;;;;;;5.68;2.95;;;;;;;;;;5010419;28;20029;-68
2022/09/29 06:43:47;;;;;;;7.10;3.33;;;;;;;;;;5008968;28;20036;-68
2022/09/29 06:46:12;;;;;;;7.22;3.53;;;;;;;;;;5008873;28;20432;-69
2022/09/29 06:48:38;;;;;;;8.10;3.60;;;;;;;;;;5010496;28;20446;-68
2022/09/29 06:51:07;;;;;;;8.18;3.78;;;;;;;;;;5010361;28;20426;-68
2022/09/29 06:53:33;;;;;;;6.00;3.17;;;;;;;;;;5008980;28;20393;-68
2022/09/29 06:55:59;;;;;;;12.15;3.92;;;;;;;;;;5009195;28;20321;-68
2022/09/29 06:58:25;;;;;;;7.22;3.33;;;;;;;;;;5009933;28;20028;-68
2022/09/29 07:00:51;;;;;;;4.50;3.30;;;;;;;;;;5010093;28;20428;-68
2022/09/29 07:03:16;;;;;;;7.78;3.88;;;;;;;;;;5010053;28;20446;-68
2022/09/29 07:05:42;;;;;;;6.28;3.42;;;;;;;;;;5010044;28;20502;-68
2022/09/29 07:08:08;;;;;;;5.30;3.50;;;;;;;;;;5008789;28;20300;-68
2022/09/29 07:10:33;;;;;;;6.85;3.58;;;;;;;;;;5010381;28;20111;-69
2022/09/29 07:12:58;;;;;;;5.45;3.15;;;;;;;;;;5009816;28;20092;-69
2022/09/29 07:15:30;;;;;;;10.15;3.65;;;;;;;;;;5009767;28;20502;-69
2022/09/29 07:17:57;;;;;;;7.90;3.78;;;;;;;;;;5009628;28;20462;-69
2022/09/29 07:20:22;;;;;;;6.47;3.90;;;;;;;;;;5009716;28;20383;-69
2022/09/29 07:22:47;;;;;;;9.05;4.50;;;;;;;;;;5009555;28;20386;-69
2022/09/29 07:25:13;;;;;;;7.05;3.97;;;;;;;;;;5009845;28;20090;-68
2022/09/29 07:27:38;;;;;;;7.85;3.75;;;;;;;;;;5009384;28;20413;-69
2022/09/29 07:30:04;;;;;;;8.50;4.22;;;;;;;;;;5008265;28;20386;-69
2022/09/29 07:32:31;;;;;;;15.20;4.20;;;;;;;;;;5009373;28;20416;-69
2022/09/29 07:34:57;;;;;;;7.10;4.22;;;;;;;;;;5009491;28;20426;-69
2022/09/29 07:37:23;;;;;;;8.98;4.97;;;;;;;;;;5009251;28;20422;-69
2022/09/29 07:39:48;;;;;;;11.90;4.60;;;;;;;;;;5007857;28;20324;-69
2022/09/29 07:42:13;;;;;;;8.60;4.57;;;;;;;;;;5009247;28;20379;-69
2022/09/29 07:44:39;;;;;;;8.88;3.67;;;;;;;;;;5009532;28;20098;-69
2022/09/29 07:47:04;;;;;;;9.63;3.95;;;;;;;;;;5010864;28;20020;-69
2022/09/29 07:49:29;;;;;;;7.28;4.18;;;;;;;;;;5008012;28;20447;-68
2022/09/29 07:51:55;;;;;;;9.02;4.10;;;;;;;;;;5008968;28;20346;-69
2022/09/29 07:54:21;;;;;;;9.30;4.05;;;;;;;;;;5008965;28;20447;-69
2022/09/29 07:56:47;;;;;;;7.97;3.63;;;;;;;;;;5007204;28;20421;-69
2022/09/29 07:59:12;;;;;;;9.77;4.88;;;;;;;;;;5009032;28;20395;-68
2022/09/29 08:01:37;;;;;;;6.70;4.03;;;;;;;;;;5008816;28;20171;-68
2022/09/29 08:04:02;;;;;;;10.05;4.15;;;;;;;;;;5008640;28;20534;-68
2022/09/29 08:06:28;;;;;;;6.93;4.38;;;;;;;;;;5007335;28;20432;-68
2022/09/29 08:08:53;;;;;;;6.88;3.83;;;;;;;;;;5007451;28;20021;-68
2022/09/29 08:11:20;;;;;;;7.25;3.85;;;;;;;;;;5006709;28;20387;-69
2022/09/29 08:13:51;;;;;;;11.00;3.60;;;;;;;;;;5008802;28;20418;-68
2022/09/29 08:16:16;;;;;;;5.35;2.85;;;;;;;;;;5007187;28;20492;-69
2022/09/29 08:18:42;;;;;;;10.82;4.20;;;;;;;;;;5009495;28;20423;-68
2022/09/29 08:21:09;;;;;;;6.40;3.83;;;;;;;;;;5006914;28;20672;-68
2022/09/29 08:23:36;;;;;;;7.32;3.90;;;;;;;;;;5006660;28;20466;-68
2022/09/29 08:26:15;;;;;;;8.43;3.50;;;;;;;;;;5006929;28;20382;-68
2022/09/29 08:28:41;;;;;;;8.05;3.70;;;;;;;;;;5009225;28;20336;-68
2022/09/29 08:31:09;;;;;;;6.90;3.50;;;;;;;;;;5008323;28;20356;-68
2022/09/29 08:33:35;;;;;;;4.95;2.85;;;;;;;;;;5007242;28;20048;-68
2022/09/29 08:36:02;;;;;;;6.05;3.08;;;;;;;;;;5006578;28;20475;-68
2022/09/29 08:38:28;;;;;;;6.93;3.60;;;;;;;;;;5007534;28;20105;-68
2022/09/29 08:40:54;;;;;;;9.35;3.47;;;;;;;;;;5007819;28;20020;-68
2022/09/29 08:43:53;;;;;;;6.82;3.30;;;;;;;;;;5006469;28;20426;-68
2022/09/29 08:46:28;;;;;;;6.45;3.20;;;;;;;;;;5005177;28;20485;-68
2022/09/29 08:48:55;;;;;;;9.10;3.65;;;;;;;;;;5006379;28;20021;-68
2022/09/29 08:51:27;;;;;;;7.35;3.78;;;;;;;;;;4990090;28;20529;-69
2022/09/29 08:53:56;;;;;;;7.97;4.97;;;;;;;;;;5006378;28;20067;-69
2022/09/29 08:56:22;;;;;;;12.18;4.18;;;;;;;;;;5007981;28;20343;-68
2022/09/29 08:58:48;;;;;;;7.70;3.40;;;;;;;;;;5007454;28;20020;-68
2022/09/29 09:01:31;;;;;;;7.85;3.80;;;;;;;;;;5007855;28;20047;-68
2022/09/29 09:04:30;;;;;;;8.95;3.88;;;;;;;;;;5007813;28;20444;-68
2022/09/29 09:07:21;;;;;;;8.77;3.65;;;;;;;;;;5007720;28;20394;-68
2022/09/29 09:10:13;;;;;;;7.10;3.63;;;;;;;;;;5007598;28;20512;-68
2022/09/29 09:12:38;;;;;;;8.93;3.20;;;;;;;;;;5010135;28;20352;-68
2022/09/29 09:15:31;;;;;;;6.20;3.22;;;;;;;;;;5007623;28;20482;-68
2022/09/29 09:18:18;;;;;;;8.55;3.60;;;;;;;;;;5006339;28;20420;-68
2022/09/29 09:20:52;;;;;;;5.10;3.05;;;;;;;;;;5007803;28;20012;-68
2022/09/29 09:23:23;;;;;;;6.05;3.45;;;;;;;;;;5006273;28;20446;-68
2022/09/29 09:25:53;;;;;;;9.25;3.92;;;;;;;;;;5006253;28;20482;-68
2022/09/29 09:28:24;;;;;;;7.30;3.30;;;;;;;;;;5006986;28;20360;-68
2022/09/29 09:31:00;;;;;;;9.07;3.53;;;;;;;;;;5006286;28;20454;-68
2022/09/29 09:33:34;;;;;;;4.72;2.70;;;;;;;;;;5005941;28;20394;-68
2022/09/29 09:36:04;;;;;;;5.50;2.85;;;;;;;;;;4989314;28;20337;-68
2022/09/29 09:38:43;;;;;;;6.72;3.00;;;;;;;;;;5005931;28;20401;-68
2022/09/29 09:41:09;;;;;;;6.50;3.30;;;;;;;;;;5005947;28;20408;-67
2022/09/29 09:43:39;;;;;;;3.38;2.58;;;;;;;;;;5005824;28;20346;-68
2022/09/29 09:46:25;;;;;;;5.25;2.53;;;;;;;;;;5006117;28;20150;-67
2022/09/29 09:49:05;;;;;;;6.35;3.03;;;;;;;;;;5005885;28;20436;-68
2022/09/29 09:51:40;;;;;;;8.98;3.10;;;;;;;;;;5006411;28;20179;-68
2022/09/29 09:54:13;;;;;;;5.30;2.72;;;;;;;;;;5009548;28;20047;-68
2022/09/29 09:57:06;;;;;;;5.30;2.70;;;;;;;;;;5010151;28;20094;-68
2022/09/29 09:59:53;;;;;;;4.22;2.42;;;;;;;;;;5012869;28;20454;-67
2022/09/29 10:02:20;;;;;;;6.50;2.50;;;;;;;;;;5011959;28;20475;-67
2022/09/29 10:04:51;;;;;;;5.75;2.50;;;;;;;;;;5011094;28;20029;-68
2022/09/29 10:07:18;;;;;;;6.03;2.42;;;;;;;;;;5010129;28;20518;-67
2022/09/29 10:09:43;;;;;;;4.57;2.53;;;;;;;;;;5009122;28;20439;-68
2022/09/29 10:12:15;;;;;;;8.00;2.58;;;;;;;;;;5013330;28;20463;-68
2022/09/29 10:14:46;;;;;;;5.03;2.65;;;;;;;;;;5009803;28;20405;-68
2022/09/29 10:17:14;;;;;;;5.22;2.63;;;;;;;;;;5010850;28;20406;-68
2022/09/29 10:19:59;;;;;;;3.97;2.45;;;;;;;;;;5009414;28;20056;-68
2022/09/29 10:22:26;;;;;;;3.20;2.00;;;;;;;;;;5010723;28;20112;-67
2022/09/29 10:25:15;;;;;;;6.28;2.80;;;;;;;;;;5011284;28;20439;-68
2022/09/29 10:27:43;;;;;;;3.38;1.90;;;;;;;;;;4995721;28;20405;-68
2022/09/29 10:30:34;;;;;;;5.32;2.08;;;;;;;;;;5009380;28;20324;-67
2022/09/29 10:33:02;;;;;;;4.32;2.05;;;;;;;;;;5003084;28;20454;-68
2022/09/29 10:35:38;;;;;;;3.90;1.73;;;;;;;;;;5012249;28;20343;-68
2022/09/29 10:38:15;;;;;;;3.47;2.00;;;;;;;;;;5009138;28;20417;-68
2022/09/29 10:40:58;;;;;;;6.82;2.15;;;;;;;;;;5008724;28;20347;-68
2022/09/29 10:43:36;;;;;;;8.52;1.98;;;;;;;;;;5012238;28;20431;-68
2022/09/29 10:46:02;;;;;;;3.05;1.70;;;;;;;;;;5008761;28;20498;-68
2022/09/29 10:48:28;;;;;;;2.85;1.75;;;;;;;;;;5008868;28;20449;-67
2022/09/29 10:50:57;;;;;;;3.28;1.70;;;;;;;;;;5010287;28;20367;-68
2022/09/29 10:53:40;;;;;;;3.80;1.80;;;;;;;;;;4992868;28;20354;-68
2022/09/29 10:56:28;;;;;;;4.03;1.90;;;;;;;;;;5008569;28;20062;-68
2022/09/29 10:58:55;;;;;;;3.38;1.70;;;;;;;;;;5010151;28;20518;-67
2022/09/29 11:01:20;;;;;;;2.58;1.88;;;;;;;;;;5011424;28;20051;-68
2022/09/29 11:03:50;;;;;;;3.92;2.05;;;;;;;;;;5008343;28;20439;-68
2022/09/29 11:06:16;;;;;;;3.33;1.70;;;;;;;;;;5008884;28;20362;-67
2022/09/29 11:08:56;;;;;;;3.58;2.33;;;;;;;;;;5008948;28;20344;-67
2022/09/29 11:11:29;;;;;;;2.90;2.05;;;;;;;;;;5009959;28;20383;-67
2022/09/29 11:13:56;;;;;;;4.50;2.25;;;;;;;;;;5009728;28;20542;-68
2022/09/29 11:16:33;;;;;;;4.63;2.42;;;;;;;;;;5009859;28;20444;-68
2022/09/29 11:19:18;;;;;;;4.50;2.22;;;;;;;;;;5010349;28;20453;-68
2022/09/29 11:21:56;;;;;;;4.50;2.15;;;;;;;;;;5009522;28;20375;-68
2022/09/29 11:24:21;;;;;;;5.05;1.70;;;;;;;;;;5009956;28;20364;-68
2022/09/29 11:26:59;;;;;;;3.33;2.28;;;;;;;;;;5010620;28;20363;-68
2022/09/29 11:29:46;;;;;;;5.00;2.22;;;;;;;;;;5008132;28;20401;-68
2022/09/29 11:32:39;;;;;;;2.88;1.70;;;;;;;;;;5007953;28;20485;-68
2022/09/29 11:35:58;;;;;;;3.38;1.90;;;;;;;;;;5009561;28;20371;-68
2022/09/29 11:38:45;;;;;;;2.58;1.70;;;;;;;;;;4909345;28;20058;-68
2022/09/29 11:41:46;;;;;;;3.75;2.13;;;;;;;;;;5000010;28;20080;-68
2022/09/29 11:44:36;;;;;;;3.45;1.88;;;;;;;;;;5009205;28;20462;-68
2022/09/29 11:47:19;;;;;;;3.22;1.75;;;;;;;;;;5007721;28;20431;-68
2022/09/29 11:50:20;;;;;;;3.30;1.67;;;;;;;;;;5009856;28;20020;-67
2022/09/29 11:52:58;;;;;;;1.90;1.35;;;;;;;;;;5007575;28;20448;-67
2022/09/29 11:55:40;;;;;;;1.77;1.33;;;;;;;;;;5010926;28;20501;-68
2022/09/29 11:58:30;;;;;;;3.53;1.55;;;;;;;;;;5009103;28;20695;-68
2022/09/29 12:01:15;;;;;;;2.30;1.50;;;;;;;;;;5009424;28;20354;-68
2022/09/29 12:04:25;;;;;;;2.55;1.35;;;;;;;;;;5009361;28;20402;-68
2022/09/29 12:06:53;;;;;;;2.25;1.25;;;;;;;;;;5009157;28;20051;-68
2022/09/29 12:09:27;;;;;;;2.67;1.67;;;;;;;;;;5010536;28;20304;-68
2022/09/29 12:12:12;;;;;;;1.98;1.40;;;;;;;;;;5008417;28;20357;-68
2022/09/29 12:15:08;;;;;;;2.78;1.42;;;;;;;;;;5007344;28;20398;-68
2022/09/29 12:17:38;;;;;;;3.47;1.63;;;;;;;;;;5008959;28;20407;-68
2022/09/29 12:20:18;;;;;;;2.03;1.40;;;;;;;;;;5007188;28;20595;-68
2022/09/29 12:22:45;;;;;;;3.60;1.20;;;;;;;;;;5008574;28;20462;-68
2022/09/29 12:25:15;;;;;;;2.22;1.20;;;;;;;;;;5007077;28;20343;-68
2022/09/29 12:27:41;;;;;;;2.47;1.33;;;;;;;;;;5009271;28;20439;-68
2022/09/29 12:30:19;;;;;;;3.65;1.60;;;;;;;;;;5006772;28;20480;-68
2022/09/29 12:33:24;;;;;;;2.43;1.30;;;;;;;;;;5006840;28;20342;-68
2022/09/29 12:39:10;;;;;;;1.75;1.30;;;;;;;;;;5010046;28;20482;-68
2022/09/29 12:41:40;;;;;;;2.05;1.15;;;;;;;;;;5007255;28;20500;-68
2022/09/29 12:44:23;;;;;;;2.15;1.10;;;;;;;;;;5008209;28;20367;-68
2022/09/29 12:47:03;;;;;;;4.63;1.27;;;;;;;;;;5006569;28;20047;-68
2022/09/29 12:49:37;;;;;;;2.45;1.23;;;;;;;;;;5006734;28;20044;-67
2022/09/29 12:52:05;;;;;;;3.65;0.98;;;;;;;;;;5008925;28;20502;-68
2022/09/29 12:54:35;;;;;;;1.55;1.20;;;;;;;;;;5006892;28;20356;-68
2022/09/29 12:57:07;;;;;;;3.10;1.42;;;;;;;;;;5010153;28;20442;-68
2022/09/29 13:00:04;;;;;;;4.60;1.42;;;;;;;;;;5006570;28;20455;-68
2022/09/29 13:02:59;;;;;;;6.63;1.55;;;;;;;;;;5003961;28;20447;-67
2022/09/29 13:05:49;;;;;;;2.15;1.38;;;;;;;;;;5009957;28;20386;-68
2022/09/29 13:08:20;;;;;;;2.25;1.35;;;;;;;;;;5007748;28;20362;-68
2022/09/29 13:10:54;;;;;;;2.58;1.40;;;;;;;;;;5007406;28;20057;-68
2022/09/29 13:13:57;;;;;;;2.95;1.48;;;;;;;;;;5007773;28;20422;-67
2022/09/29 13:16:37;;;;;;;2.22;1.45;;;;;;;;;;5008605;28;20455;-67
2022/09/29 13:19:35;;;;;;;1.85;1.20;;;;;;;;;;5006487;28;20028;-68
2022/09/29 13:22:12;;;;;;;2.60;1.53;;;;;;;;;;5007631;28;20363;-68
2022/09/29 13:24:47;;;;;;;2.47;1.20;;;;;;;;;;5008228;28;20578;-68
2022/09/29 13:27:38;;;;;;;2.10;1.30;;;;;;;;;;5007446;28;20401;-68
2022/09/29 13:30:05;;;;;;;2.75;1.27;;;;;;;;;;5007541;28;20447;-68
2022/09/29 13:32:31;;;;;;;2.30;1.58;;;;;;;;;;5007510;28;20095;-68
2022/09/29 13:34:59;;;;;;;3.40;1.55;;;;;;;;;;5006698;28;20470;-68
2022/09/29 13:37:27;;;;;;;2.35;1.40;;;;;;;;;;5007691;28;20048;-68
2022/09/29 13:40:03;;;;;;;2.72;1.35;;;;;;;;;;5005908;28;20347;-68
2022/09/29 13:42:43;;;;;;;2.50;1.35;;;;;;;;;;5006041;28;20343;-68
2022/09/29 13:45:23;;;;;;;3.28;1.40;;;;;;;;;;5007566;28;20145;-67
2022/09/29 13:47:52;;;;;;;1.98;1.20;;;;;;;;;;5009337;28;20382;-68
2022/09/29 13:50:41;;;;;;;2.00;1.40;;;;;;;;;;5006106;28;20533;-68
2022/09/29 13:53:24;;;;;;;4.72;1.20;;;;;;;;;;5010166;28;20436;-67
2022/09/29 13:55:52;;;;;;;2.28;1.30;;;;;;;;;;5007661;28;20507;-68
2022/09/29 13:58:25;;;;;;;2.55;1.33;;;;;;;;;;5007928;28;20506;-68
2022/09/29 14:00:52;;;;;;;2.70;1.42;;;;;;;;;;5009098;28;20431;-67
2022/09/29 14:03:27;;;;;;;2.10;1.13;;;;;;;;;;5006367;28;20482;-68
2022/09/29 14:06:04;;;;;;;3.00;1.40;;;;;;;;;;5007596;28;20103;-67
2022/09/29 14:08:33;;;;;;;2.40;1.27;;;;;;;;;;5008005;28;20352;-67
2022/09/29 14:11:07;;;;;;;2.20;1.38;;;;;;;;;;5005677;28;20127;-67
2022/09/29 14:13:46;;;;;;;1.98;1.15;;;;;;;;;;5005388;28;20040;-67
2022/09/29 14:16:31;;;;;;;1.48;1.13;;;;;;;;;;5007714;28;20424;-67
2022/09/29 14:19:08;;;;;;;2.17;1.35;;;;;;;;;;5005857;28;20423;-68
2022/09/29 14:21:49;;;;;;;2.15;1.35;;;;;;;;;;5006857;28;20080;-67
2022/09/29 14:24:36;;;;;;;2.05;1.25;;;;;;;;;;5006980;28;20475;-68
2022/09/29 14:27:39;;;;;;;3.10;1.17;;;;;;;;;;5007325;28;20459;-67
2022/09/29 14:30:07;;;;;;;1.95;1.40;;;;;;;;;;4977738;28;20367;-67
2022/09/29 14:32:40;;;;;;;2.42;1.48;;;;;;;;;;5007565;28;20474;-67
2022/09/29 14:35:14;;;;;;;3.78;1.67;;;;;;;;;;5007169;28;20442;-67
2022/09/29 14:37:39;;;;;;;4.45;1.58;;;;;;;;;;4989581;28;20420;-67
2022/09/29 14:43:14;;;;;;;3.00;1.92;;;;;;;;;;5010904;28;20359;-67
2022/09/29 14:51:58;;;;;;;1.48;1.08;;;;;;;;;;5013615;28;20347;-67
2022/09/29 14:54:42;;;;;;;3.03;1.30;;;;;;;;;;4993643;28;20328;-67
2022/09/29 14:57:16;;;;;;;6.82;1.48;;;;;;;;;;4992086;28;20347;-67
2022/09/29 15:00:15;;;;;;;2.38;1.30;;;;;;;;;;5010338;28;20459;-67
2022/09/29 15:02:44;;;;;;;3.28;1.52;;;;;;;;;;5009498;28;20473;-67
2022/09/29 15:05:13;;;;;;;;;;;;;;;;;;5010601;28;20352;-67
2022/09/29 15:07:41;;;;;;;1.88;1.38;;;;;;;;;;4991959;28;20267;-67
2022/09/29 15:10:19;;;;;;;1.85;1.38;;;;;;;;;;5007127;28;20079;-67
2022/09/29 15:12:49;;;;;;;3.60;1.50;;;;;;;;;;4972109;28;20389;-67
2022/09/29 15:15:34;;;;;;;2.15;1.38;;;;;;;;;;4990754;28;20324;-67
2022/09/29 15:18:10;;;;;;;1.95;1.20;;;;;;;;;;4990792;28;20051;-67
2022/09/29 15:20:54;;;;;;;2.80;1.33;;;;;;;;;;4990211;28;20513;-67
2022/09/29 15:23:35;;;;;;;2.63;1.45;;;;;;;;;;4955421;28;20391;-68
2022/09/29 15:26:00;;;;;;;2.85;1.10;;;;;;;;;;4991256;28;20423;-67
2022/09/29 15:28:32;;;;;;;3.90;1.15;;;;;;;;;;4990233;28;20506;-67